Yelizovo, Russia
Current Conditions -  °F | °C
As of 11:30 AM on Friday 19 Dec 2014 (Local Time) from UHPP Reporting Station
Clear Clear  
Wind Chill: -11°   Ceiling: Unl
Heat Index:   Visibility: 6mi
Dew Point: -9°   Wind: 9mph
Humidity: 56%   Direction: 360°N
Pressure: 29.56"   Gusts: NA
Location:  53.18°N, 158.38°E
Report Text: UHPP 182330Z 36004MPS 9999 NSC M16/M23 Q1001 NOSIG RMKQFE747/0997 SC070
Loading
Personal Weather Stations






























Interactive Weather Map New forecast layout! Learn more

10-Day Weather Forecast

Advertisements
Track Severe Weather on mobile